Pembroke Lakes, Florida
Current Conditions -  °F | °C
As of 7:53 PM on Friday 19 Dec 2014 (Local Time) from KHWO Reporting Station
Clear Clear  
Wind Chill: 68°   Ceiling: Unl
Heat Index: 68°   Visibility: 10mi
Dew Point: 59°   Wind: 0mph
Humidity: 73%   Direction: NA
Pressure: 30.09"   Gusts: NA
Location:  26.026°N, 80.2963°W
Report Text: KHWO 200053Z 00000KT 10SM CLR 20/15 A3009 RMK AO2 SLP189 T02000150
Loading
Personal Weather Stations






























Interactive Weather Map New forecast layout! Learn more

10-Day Weather Forecast

Advertisements
Track Severe Weather on mobile